Time;durP1;ratioP1;P1;durP2;ratioP2;P2;SDS_P1;SDS_P2;PMS_P1;PMS_P2;Temp;Humidity;BMP_temperature;BMP_pressure;BME280_temperature;BME280_humidity;BME280_pressure;Samples;Min_cycle;Max_cycle;Signal;HPM_P1;HPM_P2
2020/12/13 00:00:35;;;;;;;1.10;1.00;;;7.40;98.00;;;;;;5069726;28;20456;-61
2020/12/13 00:03:02;;;;;;;1.43;1.37;;;7.30;98.00;;;;;;5070105;28;20447;-61
2020/12/13 00:05:31;;;;;;;1.20;1.10;;;7.30;98.00;;;;;;5070159;28;20888;-62
2020/12/13 00:08:01;;;;;;;1.77;1.30;;;7.30;98.00;;;;;;5071424;28;20455;-62
2020/12/13 00:10:28;;;;;;;3.47;1.90;;;7.30;98.00;;;;;;5069566;28;20514;-62
2020/12/13 00:12:55;;;;;;;1.10;0.97;;;7.20;98.00;;;;;;5071342;28;20452;-62
2020/12/13 00:15:22;;;;;;;1.60;1.20;;;7.10;98.00;;;;;;5069614;28;20530;-62
2020/12/13 00:17:48;;;;;;;1.10;1.00;;;7.10;98.00;;;;;;5071181;28;20911;-62
2020/12/13 00:20:16;;;;;;;2.50;1.73;;;7.10;98.00;;;;;;5071140;28;20448;-62
2020/12/13 00:22:43;;;;;;;2.13;1.77;;;7.00;98.00;;;;;;5068262;28;20452;-62
2020/12/13 00:25:09;;;;;;;1.53;1.10;;;6.90;98.00;;;;;;5071291;28;20467;-62
2020/12/13 00:27:36;;;;;;;1.90;1.40;;;7.00;98.00;;;;;;5069521;28;20452;-61
2020/12/13 00:30:04;;;;;;;1.70;1.67;;;7.00;98.00;;;;;;5069855;28;20487;-62
2020/12/13 00:32:31;;;;;;;2.13;1.90;;;7.00;98.00;;;;;;5069660;28;20453;-62
2020/12/13 00:34:58;;;;;;;1.20;1.10;;;7.00;98.00;;;;;;5071061;28;20450;-62
2020/12/13 00:37:25;;;;;;;2.07;1.20;;;7.00;98.00;;;;;;5069345;28;20481;-62
2020/12/13 00:39:53;;;;;;;1.73;1.67;;;6.90;98.00;;;;;;5070954;28;20510;-62
2020/12/13 00:42:20;;;;;;;1.40;1.00;;;6.90;98.00;;;;;;5069217;28;21011;-61
2020/12/13 00:44:46;;;;;;;1.10;1.00;;;6.90;98.00;;;;;;5070900;28;20453;-61
2020/12/13 00:47:13;;;;;;;1.30;1.10;;;7.00;98.00;;;;;;5069478;28;20838;-61
2020/12/13 00:49:40;;;;;;;3.10;1.47;;;6.90;98.00;;;;;;5070773;28;20453;-62
2020/12/13 00:52:07;;;;;;;1.30;1.30;;;6.90;98.00;;;;;;5068225;28;20447;-61
2020/12/13 00:54:33;;;;;;;1.40;1.30;;;7.00;98.00;;;;;;5069493;28;20819;-61
2020/12/13 00:57:01;;;;;;;1.10;1.00;;;7.00;98.00;;;;;;5069090;28;20487;-62
2020/12/13 00:59:29;;;;;;;1.10;1.00;;;7.00;98.00;;;;;;5069592;28;20490;-62
2020/12/13 01:01:55;;;;;;;1.97;1.60;;;7.10;98.00;;;;;;5069117;28;20463;-61
2020/12/13 01:04:22;;;;;;;3.40;2.70;;;7.00;98.00;;;;;;5070683;28;20460;-62
2020/12/13 01:06:48;;;;;;;1.20;1.20;;;7.00;98.00;;;;;;5068526;28;20946;-62
2020/12/13 01:09:15;;;;;;;1.60;1.30;;;7.00;98.00;;;;;;5070963;28;20462;-62
2020/12/13 01:11:41;;;;;;;2.03;1.87;;;7.00;98.00;;;;;;5069280;28;20446;-61
2020/12/13 01:14:10;;;;;;;1.10;1.00;;;7.10;98.00;;;;;;5070768;28;20448;-62
2020/12/13 01:16:36;;;;;;;1.27;1.20;;;7.10;98.00;;;;;;5068965;28;20546;-62
2020/12/13 01:19:04;;;;;;;1.47;1.43;;;7.10;98.00;;;;;;5070604;28;21007;-61
2020/12/13 01:21:31;;;;;;;1.30;1.00;;;7.00;98.00;;;;;;5069049;28;20455;-62
2020/12/13 01:23:58;;;;;;;1.67;1.20;;;7.00;98.00;;;;;;5070558;28;20491;-62
2020/12/13 01:26:25;;;;;;;1.10;1.00;;;7.00;98.00;;;;;;5068871;28;20444;-61
2020/12/13 01:28:52;;;;;;;1.10;1.00;;;7.00;98.00;;;;;;5070487;28;20465;-62
2020/12/13 01:31:21;;;;;;;2.33;1.20;;;7.00;98.00;;;;;;5068251;28;20820;-62
2020/12/13 01:33:48;;;;;;;1.37;1.10;;;7.00;98.00;;;;;;5070395;28;20505;-62
2020/12/13 01:36:16;;;;;;;1.10;1.00;;;6.90;98.00;;;;;;5070196;28;20885;-61
2020/12/13 01:38:43;;;;;;;1.20;1.00;;;7.00;98.00;;;;;;5068773;28;20515;-62
2020/12/13 01:41:10;;;;;;;1.40;1.33;;;7.10;98.00;;;;;;5070191;28;20547;-62
2020/12/13 01:43:37;;;;;;;1.30;1.10;;;7.10;98.00;;;;;;5068783;28;20519;-61
2020/12/13 01:46:04;;;;;;;1.67;1.30;;;7.00;98.00;;;;;;5070389;28;20527;-62
2020/12/13 01:48:41;;;;;;;1.10;1.00;;;7.00;98.00;;;;;;5067475;28;20512;-61
2020/12/13 01:51:13;;;;;;;1.93;1.30;;;7.00;98.00;;;;;;5070155;28;20521;-62
2020/12/13 01:53:41;;;;;;;1.60;1.07;;;7.00;98.00;;;;;;5068814;28;20453;-62
2020/12/13 01:56:08;;;;;;;2.97;2.07;;;7.00;98.00;;;;;;5070060;28;20900;-61
2020/12/13 01:58:38;;;;;;;1.10;1.10;;;7.20;98.00;;;;;;5068536;28;20519;-61
2020/12/13 02:01:06;;;;;;;2.17;1.73;;;7.10;98.00;;;;;;5068862;28;20471;-61
2020/12/13 02:03:43;;;;;;;1.10;1.00;;;7.10;98.00;;;;;;5067299;28;20953;-61
2020/12/13 02:06:15;;;;;;;1.43;1.10;;;7.00;98.00;;;;;;5070159;28;20442;-62
2020/12/13 02:08:43;;;;;;;1.67;1.23;;;6.90;98.00;;;;;;5068696;28;20460;-62
2020/12/13 02:11:10;;;;;;;2.37;1.63;;;6.90;98.00;;;;;;5070229;28;20816;-61
2020/12/13 02:13:39;;;;;;;1.60;1.43;;;6.90;98.00;;;;;;5068641;28;20595;-61
2020/12/13 02:16:07;;;;;;;1.20;1.13;;;6.90;98.00;;;;;;5070106;28;20478;-62
2020/12/13 02:18:36;;;;;;;1.63;1.57;;;6.90;98.00;;;;;;5070165;28;20455;-61
2020/12/13 02:21:03;;;;;;;1.60;1.10;;;6.90;98.00;;;;;;5072463;28;20943;-61
2020/12/13 02:23:31;;;;;;;2.70;1.33;;;6.90;98.00;;;;;;5072251;28;20866;-62
2020/12/13 02:25:57;;;;;;;1.53;1.27;;;6.90;98.00;;;;;;5072424;28;20454;-62
2020/12/13 02:28:24;;;;;;;1.40;1.10;;;6.80;98.00;;;;;;5070762;28;20450;-62
2020/12/13 02:30:51;;;;;;;1.40;1.10;;;6.80;98.00;;;;;;5072290;28;20469;-61
2020/12/13 02:33:19;;;;;;;1.30;1.13;;;6.80;98.00;;;;;;5071915;28;20459;-61
2020/12/13 02:35:45;;;;;;;1.23;1.10;;;6.70;98.00;;;;;;5073724;28;20590;-61
2020/12/13 02:38:13;;;;;;;1.63;1.33;;;6.70;98.00;;;;;;5071992;28;20502;-62
2020/12/13 02:40:41;;;;;;;1.20;1.10;;;6.80;98.00;;;;;;5073349;28;20450;-62
2020/12/13 02:43:07;;;;;;;1.40;1.40;;;6.80;98.00;;;;;;5071847;28;20496;-61
2020/12/13 02:45:40;;;;;;;1.10;1.00;;;6.70;98.00;;;;;;5073343;28;20516;-62
2020/12/13 02:48:07;;;;;;;1.20;1.20;;;6.80;98.00;;;;;;5071630;28;20455;-61
2020/12/13 02:50:34;;;;;;;1.60;1.37;;;6.80;98.00;;;;;;5056127;28;20457;-61
2020/12/13 02:53:00;;;;;;;1.23;1.13;;;6.80;98.00;;;;;;5072657;28;20455;-61
2020/12/13 02:55:27;;;;;;;1.83;1.73;;;6.80;98.00;;;;;;5073564;28;20460;-62
2020/12/13 02:57:54;;;;;;;1.20;1.10;;;6.80;98.00;;;;;;5071242;28;20541;-61
2020/12/13 03:00:20;;;;;;;3.10;1.67;;;6.80;98.00;;;;;;5073091;28;20525;-61
2020/12/13 03:02:47;;;;;;;1.10;1.10;;;6.70;98.00;;;;;;5071373;28;20472;-61
2020/12/13 03:05:14;;;;;;;1.83;1.20;;;6.80;98.00;;;;;;5073136;28;20455;-61
2020/12/13 03:07:40;;;;;;;1.20;1.00;;;6.80;98.00;;;;;;5071081;28;20520;-61
2020/12/13 03:10:07;;;;;;;1.20;1.00;;;6.90;98.00;;;;;;5072778;28;20454;-61
2020/12/13 03:12:33;;;;;;;1.10;1.00;;;6.90;98.00;;;;;;5072734;28;20482;-61
2020/12/13 03:15:00;;;;;;;1.40;1.20;;;6.90;98.00;;;;;;5071486;28;20462;-61
2020/12/13 03:17:27;;;;;;;2.90;1.50;;;6.90;98.00;;;;;;5072575;28;20486;-61
2020/12/13 03:19:53;;;;;;;1.10;0.90;;;6.80;98.00;;;;;;5070789;28;20493;-62
2020/12/13 03:22:20;;;;;;;1.73;1.30;;;6.80;98.00;;;;;;5072423;28;20449;-62
2020/12/13 03:24:46;;;;;;;1.10;1.00;;;6.80;98.00;;;;;;5070753;28;20477;-61
2020/12/13 03:27:13;;;;;;;1.10;1.00;;;6.80;98.00;;;;;;5072382;28;20873;-61
2020/12/13 03:29:39;;;;;;;1.10;1.10;;;6.70;98.00;;;;;;5070203;28;20541;-61
2020/12/13 03:32:07;;;;;;;1.60;1.10;;;6.60;98.00;;;;;;5072487;28;20796;-62
2020/12/13 03:34:33;;;;;;;1.60;1.10;;;6.70;98.00;;;;;;5070668;28;20481;-61
2020/12/13 03:37:00;;;;;;;1.20;1.10;;;6.80;98.00;;;;;;5071009;28;20580;-61
2020/12/13 03:39:26;;;;;;;1.43;1.37;;;6.80;98.00;;;;;;5070467;28;20456;-61
2020/12/13 03:41:53;;;;;;;1.70;1.30;;;6.80;98.00;;;;;;5072168;28;20815;-61
2020/12/13 03:44:19;;;;;;;1.20;1.10;;;6.90;98.00;;;;;;5070395;28;20454;-61
2020/12/13 03:46:46;;;;;;;1.93;1.20;;;6.80;98.00;;;;;;5071874;28;20532;-63
2020/12/13 03:49:21;;;;;;;1.77;1.37;;;6.80;98.00;;;;;;5070646;28;20940;-61
2020/12/13 03:51:47;;;;;;;7.40;1.70;;;6.70;98.00;;;;;;5069456;28;20445;-61
2020/12/13 03:54:14;;;;;;;1.20;1.10;;;6.70;98.00;;;;;;5069214;28;20813;-62
2020/12/13 03:56:40;;;;;;;1.70;1.40;;;6.70;98.00;;;;;;5070535;28;20551;-61
2020/12/13 03:59:07;;;;;;;2.03;1.17;;;6.70;98.00;;;;;;5070237;28;20463;-62
2020/12/13 04:01:33;;;;;;;1.63;1.30;;;6.80;98.00;;;;;;5071757;28;20965;-61
2020/12/13 04:03:59;;;;;;;2.23;2.03;;;6.80;98.00;;;;;;5069093;28;20445;-62
2020/12/13 04:06:27;;;;;;;1.20;1.20;;;6.80;98.00;;;;;;5071826;28;20557;-62
2020/12/13 04:08:53;;;;;;;1.20;1.10;;;7.00;98.00;;;;;;5069905;28;20448;-61
2020/12/13 04:11:20;;;;;;;2.13;1.70;;;7.00;98.00;;;;;;5071474;28;20512;-61
2020/12/13 04:13:46;;;;;;;1.10;1.00;;;6.90;98.00;;;;;;5069698;28;20949;-61
2020/12/13 04:16:13;;;;;;;1.67;1.57;;;6.90;98.00;;;;;;5071332;28;20940;-61
2020/12/13 04:18:39;;;;;;;3.43;1.47;;;6.90;98.00;;;;;;5069685;28;20460;-61
2020/12/13 04:21:06;;;;;;;1.30;1.00;;;6.80;98.00;;;;;;5071437;28;21002;-61
2020/12/13 04:23:33;;;;;;;1.10;1.00;;;6.80;98.00;;;;;;5069484;28;20611;-61
2020/12/13 04:26:00;;;;;;;1.10;1.00;;;6.80;98.00;;;;;;5070953;28;20556;-61
2020/12/13 04:28:27;;;;;;;1.10;1.00;;;6.80;98.00;;;;;;5071287;28;20452;-61
2020/12/13 04:30:53;;;;;;;1.30;1.20;;;6.80;98.00;;;;;;5067871;28;20931;-62
2020/12/13 04:33:22;;;;;;;1.20;1.10;;;6.80;98.00;;;;;;5071169;28;20954;-62
2020/12/13 04:35:48;;;;;;;1.40;1.20;;;6.80;98.00;;;;;;5069639;28;20495;-61
2020/12/13 04:38:15;;;;;;;2.03;1.63;;;6.80;98.00;;;;;;5070843;28;20484;-62
2020/12/13 04:40:42;;;;;;;1.33;1.10;;;6.80;98.00;;;;;;5069458;28;20817;-62
2020/12/13 04:43:08;;;;;;;1.10;0.90;;;6.80;98.00;;;;;;5070050;28;20459;-62
2020/12/13 04:45:35;;;;;;;1.50;1.30;;;6.80;98.00;;;;;;5069221;28;20965;-61
2020/12/13 04:48:10;;;;;;;1.37;1.10;;;6.90;98.00;;;;;;5070967;28;20473;-61
2020/12/13 04:50:39;;;;;;;1.30;1.10;;;6.90;98.00;;;;;;5068178;28;20446;-61
2020/12/13 04:53:15;;;;;;;1.10;1.10;;;7.10;98.00;;;;;;5071011;28;20461;-62
2020/12/13 04:55:52;;;;;;;2.40;2.20;;;7.20;98.00;;;;;;5068914;28;20451;-61
2020/12/13 04:58:21;;;;;;;1.80;1.60;;;7.40;98.00;;;;;;5070719;28;20893;-62
2020/12/13 05:00:54;;;;;;;1.10;0.97;;;7.60;98.00;;;;;;5068896;28;21030;-61
2020/12/13 05:03:23;;;;;;;1.10;1.10;;;7.50;98.00;;;;;;5070610;28;20467;-63
2020/12/13 05:05:50;;;;;;;1.10;0.90;;;7.30;98.00;;;;;;5069075;28;20528;-61
2020/12/13 05:08:16;;;;;;;1.57;1.30;;;7.20;98.00;;;;;;5070758;28;20992;-61
2020/12/13 05:10:44;;;;;;;1.10;1.00;;;7.10;98.00;;;;;;5068911;28;20455;-61
2020/12/13 05:13:11;;;;;;;1.37;1.30;;;7.10;98.00;;;;;;5069456;28;20451;-62
2020/12/13 05:15:39;;;;;;;1.57;1.33;;;7.00;98.00;;;;;;5068580;28;20459;-62
2020/12/13 05:18:06;;;;;;;1.10;0.90;;;7.10;98.00;;;;;;5070684;28;20607;-61
2020/12/13 05:20:33;;;;;;;1.10;1.00;;;7.00;98.00;;;;;;5069088;28;20474;-62
2020/12/13 05:23:01;;;;;;;1.80;1.77;;;7.00;98.00;;;;;;5070461;28;20515;-61
2020/12/13 05:25:32;;;;;;;1.10;0.90;;;6.90;98.00;;;;;;5068949;28;20536;-61
2020/12/13 05:28:06;;;;;;;1.50;1.30;;;6.90;98.00;;;;;;5070730;28;20824;-62
2020/12/13 05:30:36;;;;;;;1.20;1.10;;;6.80;98.00;;;;;;5069000;28;20492;-62
2020/12/13 05:33:05;;;;;;;1.30;1.30;;;6.80;98.00;;;;;;5070825;28;20459;-63
2020/12/13 05:35:31;;;;;;;3.83;1.50;;;6.80;98.00;;;;;;5051552;28;20971;-61
2020/12/13 05:37:58;;;;;;;1.20;1.07;;;6.90;98.00;;;;;;5070405;28;20782;-62
2020/12/13 05:40:26;;;;;;;1.37;1.30;;;6.90;98.00;;;;;;5068735;28;21073;-61
2020/12/13 05:43:00;;;;;;;1.20;1.10;;;6.90;98.00;;;;;;5070342;28;20461;-62
2020/12/13 05:45:44;;;;;;;1.10;1.00;;;7.00;98.00;;;;;;5068995;28;20806;-62
2020/12/13 05:51:04;;;;;;;1.10;0.90;;;7.10;98.00;;;;;;5068758;28;20452;-62
2020/12/13 05:53:31;;;;;;;1.30;1.20;;;7.10;98.00;;;;;;5070361;28;20472;-63
2020/12/13 05:55:58;;;;;;;3.03;1.43;;;7.20;98.00;;;;;;5072511;28;20972;-62
2020/12/13 05:58:26;;;;;;;1.30;1.20;;;7.30;98.00;;;;;;5072714;28;20541;-61
2020/12/13 06:00:54;;;;;;;1.27;1.23;;;7.20;98.00;;;;;;5072000;28;20474;-62
2020/12/13 06:03:33;;;;;;;1.20;1.20;;;7.30;98.00;;;;;;5073753;28;20477;-62
2020/12/13 06:06:04;;;;;;;1.30;1.10;;;7.30;98.00;;;;;;5071683;28;20485;-61
2020/12/13 06:08:52;;;;;;;1.10;1.00;;;7.20;98.00;;;;;;5073763;28;20509;-61
2020/12/13 06:11:21;;;;;;;2.10;1.30;;;7.40;98.00;;;;;;5069717;28;20972;-62
2020/12/13 06:13:53;;;;;;;1.33;1.20;;;7.70;98.00;;;;;;5073646;28;20462;-62
2020/12/13 06:16:22;;;;;;;1.20;1.20;;;7.70;98.00;;;;;;5071812;28;20462;-61
2020/12/13 06:18:49;;;;;;;1.10;1.00;;;7.70;98.00;;;;;;5073520;28;20455;-61
2020/12/13 06:21:18;;;;;;;1.10;1.00;;;7.70;98.00;;;;;;5072057;28;20458;-61
2020/12/13 06:23:48;;;;;;;1.10;0.90;;;7.60;98.00;;;;;;5073379;28;20504;-61
2020/12/13 06:26:14;;;;;;;1.30;1.20;;;7.60;98.00;;;;;;5071941;28;20865;-63
2020/12/13 06:28:42;;;;;;;1.37;1.33;;;7.50;98.00;;;;;;5073411;28;20928;-61
2020/12/13 06:31:08;;;;;;;1.37;1.33;;;7.60;98.00;;;;;;5071762;28;20450;-61
2020/12/13 06:33:45;;;;;;;1.10;1.00;;;7.70;98.00;;;;;;5073294;28;21010;-61
2020/12/13 06:36:12;;;;;;;1.10;1.00;;;7.70;98.00;;;;;;5070170;28;20511;-62
2020/12/13 06:38:40;;;;;;;1.53;1.30;;;7.60;98.00;;;;;;5073036;28;20563;-61
2020/12/13 06:41:08;;;;;;;1.20;1.03;;;7.50;98.00;;;;;;5071487;28;20453;-62
2020/12/13 06:43:49;;;;;;;1.10;1.10;;;7.50;98.00;;;;;;5071979;28;20458;-61
2020/12/13 06:46:17;;;;;;;1.20;1.13;;;7.50;98.00;;;;;;5054545;28;20451;-62
2020/12/13 06:48:45;;;;;;;1.70;1.50;;;7.50;98.00;;;;;;5073013;28;20505;-61
2020/12/13 06:51:17;;;;;;;1.70;1.30;;;7.50;98.00;;;;;;5071600;28;20454;-61
2020/12/13 06:53:46;;;;;;;1.10;1.10;;;7.40;98.00;;;;;;5071649;28;20506;-61
2020/12/13 06:56:12;;;;;;;1.30;1.10;;;7.30;98.00;;;;;;5071653;28;20467;-62
2020/12/13 06:58:46;;;;;;;2.93;1.57;;;7.20;98.00;;;;;;5073063;28;20532;-62
2020/12/13 07:01:17;;;;;;;1.43;1.40;;;7.20;98.00;;;;;;5071683;28;20574;-61
2020/12/13 07:03:45;;;;;;;1.10;0.93;;;7.20;98.00;;;;;;5072729;28;20449;-61
2020/12/13 07:06:18;;;;;;;1.77;1.33;;;7.20;98.00;;;;;;5070273;28;20459;-62
2020/12/13 07:08:52;;;;;;;1.10;1.00;;;7.30;98.00;;;;;;5072646;28;20497;-61
2020/12/13 07:11:21;;;;;;;1.43;1.20;;;7.40;98.00;;;;;;5070020;28;20516;-62
2020/12/13 07:13:48;;;;;;;1.10;0.93;;;7.40;98.00;;;;;;5072479;28;20445;-62
2020/12/13 07:16:34;;;;;;;1.10;1.00;;;7.40;98.00;;;;;;5071041;28;20465;-62
2020/12/13 07:19:11;;;;;;;1.10;1.00;;;7.40;98.00;;;;;;5072591;28;21033;-62
2020/12/13 07:21:39;;;;;;;1.43;1.30;;;7.40;98.00;;;;;;5070814;28;20491;-62
2020/12/13 07:24:07;;;;;;;1.43;1.40;;;7.50;98.00;;;;;;5072397;28;20936;-62
2020/12/13 07:26:34;;;;;;;1.20;1.10;;;7.50;98.00;;;;;;5070834;28;20510;-62
2020/12/13 07:29:03;;;;;;;1.10;1.00;;;7.50;98.00;;;;;;5072395;28;21004;-61
2020/12/13 07:31:35;;;;;;;3.17;1.37;;;7.50;98.00;;;;;;5070107;28;20512;-62
2020/12/13 07:34:04;;;;;;;1.30;1.10;;;7.40;98.00;;;;;;5071993;28;20497;-61
2020/12/13 07:36:30;;;;;;;1.20;1.10;;;7.40;98.00;;;;;;5070487;28;20526;-61
2020/12/13 07:38:57;;;;;;;1.30;1.20;;;7.50;98.00;;;;;;5071924;28;20509;-61
2020/12/13 07:41:25;;;;;;;1.10;0.97;;;7.40;98.00;;;;;;5070543;28;20455;-61
2020/12/13 07:43:54;;;;;;;1.10;0.90;;;7.40;98.00;;;;;;5071918;28;20452;-61
2020/12/13 07:46:21;;;;;;;4.17;1.70;;;7.40;98.00;;;;;;5070952;28;20918;-61
2020/12/13 07:48:48;;;;;;;1.10;0.90;;;7.50;98.00;;;;;;5071794;28;20448;-61
2020/12/13 07:51:16;;;;;;;1.40;1.30;;;7.50;98.00;;;;;;5070272;28;21039;-61
2020/12/13 07:53:43;;;;;;;1.30;1.20;;;7.60;98.00;;;;;;5071884;28;20474;-61
2020/12/13 07:56:09;;;;;;;3.57;1.83;;;7.70;98.00;;;;;;5069136;28;20945;-61
2020/12/13 07:58:36;;;;;;;1.10;0.90;;;7.70;98.00;;;;;;5071750;28;20483;-61
2020/12/13 08:01:10;;;;;;;16.23;1.60;;;7.80;98.00;;;;;;5069264;28;20467;-61
2020/12/13 08:03:43;;;;;;;1.10;0.90;;;7.90;98.00;;;;;;5071371;28;20502;-61
2020/12/13 08:06:10;;;;;;;1.10;1.00;;;8.00;98.00;;;;;;5070334;28;20459;-61
2020/12/13 08:08:46;;;;;;;1.30;1.20;;;8.00;98.00;;;;;;5071542;28;20483;-62
2020/12/13 08:11:14;;;;;;;2.07;1.67;;;7.80;98.00;;;;;;5070335;28;20513;-62
2020/12/13 08:13:56;;;;;;;1.10;0.90;;;7.80;98.00;;;;;;5071488;28;20451;-61
2020/12/13 08:16:26;;;;;;;1.10;1.10;;;7.60;98.00;;;;;;5070136;28;20999;-62
2020/12/13 08:18:55;;;;;;;1.10;0.90;;;7.50;98.00;;;;;;5071337;28;20480;-61
2020/12/13 08:21:29;;;;;;;1.10;0.97;;;7.50;98.00;;;;;;5069198;28;20462;-61
2020/12/13 08:24:05;;;;;;;1.30;1.10;;;7.50;98.00;;;;;;5071712;28;20459;-61
2020/12/13 08:26:32;;;;;;;1.10;0.90;;;7.50;98.00;;;;;;5070015;28;20446;-61
2020/12/13 08:29:02;;;;;;;1.10;1.00;;;7.60;98.00;;;;;;5071291;28;20454;-62
2020/12/13 08:31:30;;;;;;;1.10;1.00;;;7.60;98.00;;;;;;5071229;28;20963;-62
2020/12/13 08:34:01;;;;;;;1.10;1.00;;;7.50;98.00;;;;;;5070560;28;20459;-61
2020/12/13 08:36:28;;;;;;;1.10;1.00;;;7.60;98.00;;;;;;5070973;28;20816;-61
2020/12/13 08:39:11;;;;;;;1.10;1.00;;;7.70;98.00;;;;;;5069963;28;20489;-62
2020/12/13 08:41:45;;;;;;;2.07;1.10;;;7.80;98.00;;;;;;5070436;28;20514;-61
2020/12/13 08:44:29;;;;;;;1.10;1.00;;;7.90;98.00;;;;;;5071010;28;20448;-61
2020/12/13 08:46:57;;;;;;;1.10;0.90;;;7.80;98.00;;;;;;5069727;28;20453;-61
2020/12/13 08:49:34;;;;;;;1.20;1.07;;;7.80;98.00;;;;;;5070776;28;20458;-61
2020/12/13 08:52:17;;;;;;;2.80;1.23;;;7.80;98.00;;;;;;5069327;28;20458;-62
2020/12/13 08:54:46;;;;;;;1.20;1.10;;;7.90;98.00;;;;;;5068340;28;20450;-66
2020/12/13 08:57:12;;;;;;;2.30;1.33;;;9.20;98.00;;;;;;5068778;28;20539;-63
2020/12/13 08:59:39;;;;;;;1.20;1.00;;;10.60;98.00;;;;;;5070380;28;20630;-65
2020/12/13 09:02:05;;;;;;;1.20;1.10;;;11.20;98.00;;;;;;5068789;28;20534;-64
2020/12/13 09:04:34;;;;;;;1.30;1.00;;;11.20;98.00;;;;;;5069948;28;20460;-62
2020/12/13 09:07:01;;;;;;;1.50;1.20;;;10.70;98.00;;;;;;5068817;28;20451;-63
2020/12/13 09:09:32;;;;;;;1.47;1.33;;;10.30;98.00;;;;;;5069285;28;20455;-62
2020/12/13 09:12:02;;;;;;;1.40;1.13;;;9.90;98.00;;;;;;5070335;28;20936;-62
2020/12/13 09:14:34;;;;;;;1.20;1.10;;;9.50;98.00;;;;;;5070024;28;20463;-63
2020/12/13 09:17:01;;;;;;;2.43;1.20;;;9.30;98.00;;;;;;5070361;28;20486;-63
2020/12/13 09:19:28;;;;;;;1.20;1.00;;;9.00;98.00;;;;;;5070531;28;20873;-62
2020/12/13 09:21:57;;;;;;;1.80;1.23;;;8.80;98.00;;;;;;5070598;28;20446;-61
2020/12/13 09:24:26;;;;;;;1.83;1.77;;;8.70;98.00;;;;;;5069970;28;20454;-62
2020/12/13 09:27:05;;;;;;;1.40;1.20;;;8.50;98.00;;;;;;5070858;28;20460;-63
2020/12/13 09:29:33;;;;;;;1.20;1.10;;;8.30;98.00;;;;;;5071989;28;20458;-63
2020/12/13 09:32:00;;;;;;;1.50;1.10;;;8.30;98.00;;;;;;5074358;28;20511;-61
2020/12/13 09:34:27;;;;;;;1.20;1.00;;;8.30;98.00;;;;;;5072619;28;20456;-62
2020/12/13 09:36:54;;;;;;;1.30;1.20;;;8.30;98.00;;;;;;5074402;28;20963;-62
2020/12/13 09:39:21;;;;;;;1.20;0.90;;;8.30;98.00;;;;;;5072968;28;20515;-62
2020/12/13 09:41:47;;;;;;;1.20;1.00;;;8.30;98.00;;;;;;5074315;28;20477;-62
2020/12/13 09:44:15;;;;;;;1.30;1.10;;;8.20;98.00;;;;;;5072903;28;20783;-63
2020/12/13 09:46:41;;;;;;;1.20;1.20;;;8.20;98.00;;;;;;5073808;28;20512;-62
2020/12/13 09:49:08;;;;;;;1.50;1.40;;;8.10;98.00;;;;;;5072559;28;20456;-61
2020/12/13 09:51:34;;;;;;;1.30;1.20;;;8.20;98.00;;;;;;5074089;28;21040;-62
2020/12/13 09:54:00;;;;;;;1.20;1.00;;;8.10;98.00;;;;;;5072361;28;20949;-62
2020/12/13 09:56:28;;;;;;;1.20;1.00;;;8.00;98.00;;;;;;5073701;28;20452;-62
2020/12/13 09:58:54;;;;;;;1.30;1.07;;;7.90;98.00;;;;;;5072344;28;21021;-61
2020/12/13 10:01:21;;;;;;;1.20;1.10;;;7.90;98.00;;;;;;5073568;28;20881;-62
2020/12/13 10:03:50;;;;;;;1.50;1.20;;;7.90;98.00;;;;;;5072618;28;20507;-62
2020/12/13 10:09:04;;;;;;;1.20;1.10;;;8.00;98.00;;;;;;5054601;28;20546;-63
2020/12/13 10:11:32;;;;;;;1.20;1.00;;;8.00;98.00;;;;;;5073468;28;20453;-61
2020/12/13 10:14:03;;;;;;;1.20;1.00;;;8.00;98.00;;;;;;5072001;28;20506;-62
2020/12/13 10:16:31;;;;;;;1.20;0.90;;;8.00;98.00;;;;;;5071883;28;20450;-61
2020/12/13 10:18:57;;;;;;;2.03;1.20;;;7.90;98.00;;;;;;5070470;28;20512;-60
2020/12/13 10:21:25;;;;;;;1.20;1.00;;;8.00;98.00;;;;;;5071976;28;20668;-61
2020/12/13 10:23:53;;;;;;;2.03;1.10;;;8.00;98.00;;;;;;5070538;28;20515;-60
2020/12/13 10:26:23;;;;;;;2.27;1.40;;;8.10;98.00;;;;;;5073165;28;20508;-61
2020/12/13 10:28:50;;;;;;;1.17;1.00;;;8.20;98.00;;;;;;5070577;28;20451;-60
2020/12/13 10:31:17;;;;;;;1.20;1.00;;;8.20;98.00;;;;;;5073149;28;20523;-62
2020/12/13 10:33:47;;;;;;;1.10;0.90;;;8.10;98.00;;;;;;5071675;28;20463;-60
2020/12/13 10:36:14;;;;;;;1.10;0.90;;;8.20;98.00;;;;;;5072738;28;20547;-60
2020/12/13 10:38:43;;;;;;;1.20;1.00;;;8.30;98.00;;;;;;5071476;28;20545;-60
2020/12/13 10:41:10;;;;;;;1.20;1.10;;;8.20;98.00;;;;;;5071509;28;20455;-61
2020/12/13 10:43:37;;;;;;;1.30;1.10;;;8.30;98.00;;;;;;5071312;28;20851;-60
2020/12/13 10:46:04;;;;;;;1.20;1.03;;;8.30;98.00;;;;;;5072480;28;20506;-60
2020/12/13 10:48:32;;;;;;;2.27;1.10;;;8.40;98.00;;;;;;5071574;28;20462;-60
2020/12/13 10:51:00;;;;;;;1.20;1.00;;;8.30;98.00;;;;;;5072692;28;20544;-60
2020/12/13 10:53:26;;;;;;;1.70;1.37;;;8.40;98.00;;;;;;5072543;28;20948;-61
2020/12/13 10:55:53;;;;;;;1.20;1.00;;;8.30;98.00;;;;;;5071037;28;20459;-60
2020/12/13 10:58:20;;;;;;;1.20;1.00;;;8.30;98.00;;;;;;5072371;28;20491;-60
2020/12/13 11:00:47;;;;;;;1.20;0.90;;;8.30;98.00;;;;;;5070783;28;20535;-61
2020/12/13 11:03:13;;;;;;;1.17;1.00;;;8.40;98.00;;;;;;5072441;28;20481;-61
2020/12/13 11:05:41;;;;;;;1.30;1.10;;;8.40;98.00;;;;;;5070947;28;20785;-61
2020/12/13 11:08:08;;;;;;;1.57;1.33;;;8.40;98.00;;;;;;5072386;28;20461;-62
2020/12/13 11:10:35;;;;;;;1.30;1.30;;;8.40;98.00;;;;;;5071104;28;20454;-60
2020/12/13 11:13:01;;;;;;;1.20;1.07;;;8.40;98.00;;;;;;5072423;28;20869;-60
2020/12/13 11:15:28;;;;;;;2.53;1.20;;;8.50;98.00;;;;;;5070596;28;20792;-61
2020/12/13 11:17:55;;;;;;;1.40;1.10;;;8.50;98.00;;;;;;5072255;28;20490;-60
2020/12/13 11:20:21;;;;;;;1.20;1.00;;;8.60;98.00;;;;;;5071220;28;20445;-60
2020/12/13 11:22:48;;;;;;;1.20;1.00;;;8.60;98.00;;;;;;5072571;28;20451;-61
2020/12/13 11:25:16;;;;;;;1.60;1.10;;;8.70;98.00;;;;;;5070789;28;20588;-61
2020/12/13 11:27:43;;;;;;;1.50;1.00;;;8.70;98.00;;;;;;5072151;28;20448;-61
2020/12/13 11:30:10;;;;;;;1.30;1.20;;;8.70;98.00;;;;;;5070645;28;20949;-61
2020/12/13 11:32:37;;;;;;;1.30;1.10;;;8.70;98.00;;;;;;5071908;28;20474;-61
2020/12/13 11:35:04;;;;;;;2.00;1.60;;;8.80;98.00;;;;;;5069979;28;20472;-61
2020/12/13 11:37:31;;;;;;;1.20;1.00;;;8.90;98.00;;;;;;5071833;28;20484;-61
2020/12/13 11:39:57;;;;;;;1.40;1.30;;;9.00;98.00;;;;;;5070346;28;20452;-61
2020/12/13 11:42:25;;;;;;;1.20;1.00;;;9.00;98.00;;;;;;5071989;28;20948;-61
2020/12/13 11:44:52;;;;;;;1.20;1.10;;;9.20;98.00;;;;;;5070076;28;20451;-61
2020/12/13 11:47:18;;;;;;;1.20;1.00;;;9.30;98.00;;;;;;5071826;28;20454;-61
2020/12/13 11:49:45;;;;;;;1.20;1.00;;;9.50;98.00;;;;;;5070284;28;20453;-61
2020/12/13 11:52:11;;;;;;;1.37;1.33;;;9.70;98.00;;;;;;5071038;28;20460;-61
2020/12/13 11:54:38;;;;;;;1.20;1.00;;;9.90;98.00;;;;;;5070082;28;20498;-61
2020/12/13 11:57:05;;;;;;;1.87;1.23;;;10.00;98.00;;;;;;5071409;28;20508;-61
2020/12/13 11:59:32;;;;;;;1.20;1.10;;;9.90;98.00;;;;;;5070102;28;20516;-60
2020/12/13 12:01:59;;;;;;;1.20;1.00;;;9.80;98.00;;;;;;5071310;28;20611;-60
2020/12/13 12:04:25;;;;;;;1.20;1.10;;;9.80;98.00;;;;;;5069939;28;20454;-61
2020/12/13 12:06:53;;;;;;;1.20;1.00;;;9.90;98.00;;;;;;5071258;28;20500;-61
2020/12/13 12:09:19;;;;;;;2.40;1.50;;;9.90;98.00;;;;;;5070963;28;20582;-64
2020/12/13 12:11:46;;;;;;;1.93;1.33;;;9.90;98.00;;;;;;5070898;28;20465;-61
2020/12/13 12:14:13;;;;;;;1.20;1.00;;;9.90;98.00;;;;;;5071166;28;20453;-61
2020/12/13 12:16:42;;;;;;;1.20;1.00;;;9.70;98.00;;;;;;5069546;28;20456;-61
2020/12/13 12:19:09;;;;;;;1.20;0.90;;;9.60;98.00;;;;;;5070920;28;20575;-61
2020/12/13 12:21:37;;;;;;;1.60;1.10;;;9.60;98.00;;;;;;5069839;28;20449;-60
2020/12/13 12:24:04;;;;;;;1.20;1.10;;;9.50;98.00;;;;;;5070798;28;20469;-61
2020/12/13 12:26:32;;;;;;;1.40;1.20;;;9.50;98.00;;;;;;5069398;28;20550;-63
2020/12/13 12:28:59;;;;;;;1.20;1.00;;;9.40;98.00;;;;;;5070647;28;21075;-61
2020/12/13 12:31:26;;;;;;;1.50;1.20;;;9.40;98.00;;;;;;5069848;28;20458;-61
2020/12/13 12:33:53;;;;;;;1.20;1.00;;;9.30;98.00;;;;;;5070716;28;20661;-61
2020/12/13 12:36:21;;;;;;;1.30;1.30;;;9.20;98.00;;;;;;5069469;28;20871;-61
2020/12/13 12:38:49;;;;;;;1.60;1.30;;;9.30;98.00;;;;;;5070621;28;20543;-61
2020/12/13 12:41:17;;;;;;;1.20;1.10;;;9.40;98.00;;;;;;5069904;28;20456;-60
2020/12/13 12:43:47;;;;;;;1.70;1.10;;;9.40;98.00;;;;;;5070698;28;20852;-61
2020/12/13 12:46:14;;;;;;;1.93;1.33;;;9.30;98.00;;;;;;5069333;28;20461;-61
2020/12/13 12:48:47;;;;;;;1.60;1.30;;;9.20;98.00;;;;;;5070678;28;20929;-60
2020/12/13 12:51:16;;;;;;;1.20;0.97;;;9.10;98.00;;;;;;5069153;28;20467;-60
2020/12/13 12:53:43;;;;;;;1.20;1.00;;;8.90;98.00;;;;;;5070885;28;20520;-60
2020/12/13 12:56:10;;;;;;;1.20;1.00;;;8.90;98.00;;;;;;5067150;28;20463;-61
2020/12/13 12:58:47;;;;;;;2.27;1.13;;;8.90;98.00;;;;;;5070550;28;21065;-60
2020/12/13 13:01:16;;;;;;;1.20;1.00;;;9.00;98.00;;;;;;5068981;28;20833;-61
2020/12/13 13:03:44;;;;;;;2.03;1.17;;;9.00;98.00;;;;;;5069490;28;20941;-60
2020/12/13 13:06:25;;;;;;;1.23;1.03;;;8.90;98.00;;;;;;5068599;28;20494;-61
2020/12/13 13:09:00;;;;;;;1.20;0.90;;;8.90;98.00;;;;;;5070022;28;20459;-61